sensor_id;sensor_type;location;lat;lon;timestamp;temperature;humidity
15013;DHT22;7603;49.432;11.418;2022-09-09T00:02:00;10.90;99.90
15013;DHT22;7603;49.432;11.418;2022-09-09T00:04:35;10.90;99.90
15013;DHT22;7603;49.432;11.418;2022-09-09T00:09:47;10.90;99.90
15013;DHT22;7603;49.432;11.418;2022-09-09T00:12:25;10.90;99.90
15013;DHT22;7603;49.432;11.418;2022-09-09T00:15:07;10.80;99.90
15013;DHT22;7603;49.432;11.418;2022-09-09T00:17:51;10.80;99.90
15013;DHT22;7603;49.432;11.418;2022-09-09T00:20:20;10.80;99.90
15013;DHT22;7603;49.432;11.418;2022-09-09T00:23:11;10.80;99.90
15013;DHT22;7603;49.432;11.418;2022-09-09T00:31:31;10.70;99.90
15013;DHT22;7603;49.432;11.418;2022-09-09T00:34:09;10.70;99.90
15013;DHT22;7603;49.432;11.418;2022-09-09T00:36:38;10.60;99.90
15013;DHT22;7603;49.432;11.418;2022-09-09T00:39:05;10.60;99.90
15013;DHT22;7603;49.432;11.418;2022-09-09T00:41:54;10.60;99.90
15013;DHT22;7603;49.432;11.418;2022-09-09T00:44:28;10.60;99.90
15013;DHT22;7603;49.432;11.418;2022-09-09T00:54:48;10.50;99.90
15013;DHT22;7603;49.432;11.418;2022-09-09T00:57:28;10.50;99.90
15013;DHT22;7603;49.432;11.418;2022-09-09T01:02:51;10.50;99.90
15013;DHT22;7603;49.432;11.418;2022-09-09T01:05:33;10.50;99.90
15013;DHT22;7603;49.432;11.418;2022-09-09T01:08:03;10.40;99.90
15013;DHT22;7603;49.432;11.418;2022-09-09T01:10:46;10.40;99.90
15013;DHT22;7603;49.432;11.418;2022-09-09T01:13:35;10.40;99.90
15013;DHT22;7603;49.432;11.418;2022-09-09T01:16:03;10.40;99.90
15013;DHT22;7603;49.432;11.418;2022-09-09T01:18:37;10.40;99.90
15013;DHT22;7603;49.432;11.418;2022-09-09T01:24:54;10.40;99.90
15013;DHT22;7603;49.432;11.418;2022-09-09T01:27:13;10.40;99.90
15013;DHT22;7603;49.432;11.418;2022-09-09T01:29:40;10.40;99.90
15013;DHT22;7603;49.432;11.418;2022-09-09T01:32:41;10.40;99.90
15013;DHT22;7603;49.432;11.418;2022-09-09T01:37:59;10.40;99.90
15013;DHT22;7603;49.432;11.418;2022-09-09T01:40:25;10.30;99.90
15013;DHT22;7603;49.432;11.418;2022-09-09T01:42:52;10.40;99.90
15013;DHT22;7603;49.432;11.418;2022-09-09T01:45:18;10.40;99.90
15013;DHT22;7603;49.432;11.418;2022-09-09T01:47:45;10.40;99.90
15013;DHT22;7603;49.432;11.418;2022-09-09T01:50:14;10.40;99.90
15013;DHT22;7603;49.432;11.418;2022-09-09T01:52:40;10.40;99.90
15013;DHT22;7603;49.432;11.418;2022-09-09T01:55:08;10.50;99.90
15013;DHT22;7603;49.432;11.418;2022-09-09T01:57:43;10.50;99.90
15013;DHT22;7603;49.432;11.418;2022-09-09T02:00:13;10.60;99.90
15013;DHT22;7603;49.432;11.418;2022-09-09T02:02:43;10.60;99.90
15013;DHT22;7603;49.432;11.418;2022-09-09T02:05:37;10.60;99.90
15013;DHT22;7603;49.432;11.418;2022-09-09T02:08:20;10.70;99.90
15013;DHT22;7603;49.432;11.418;2022-09-09T02:13:17;10.90;99.90
15013;DHT22;7603;49.432;11.418;2022-09-09T02:15:55;11.10;99.90
15013;DHT22;7603;49.432;11.418;2022-09-09T02:21:13;11.30;99.90
15013;DHT22;7603;49.432;11.418;2022-09-09T02:23:42;11.40;99.90
15013;DHT22;7603;49.432;11.418;2022-09-09T02:26:09;11.50;99.90
15013;DHT22;7603;49.432;11.418;2022-09-09T02:28:37;11.60;99.90
15013;DHT22;7603;49.432;11.418;2022-09-09T02:31:04;11.70;99.90
15013;DHT22;7603;49.432;11.418;2022-09-09T02:33:36;11.70;99.90
15013;DHT22;7603;49.432;11.418;2022-09-09T02:36:03;11.70;99.90
15013;DHT22;7603;49.432;11.418;2022-09-09T02:38:35;11.80;99.90
15013;DHT22;7603;49.432;11.418;2022-09-09T02:41:01;11.80;99.90
15013;DHT22;7603;49.432;11.418;2022-09-09T02:43:32;11.90;99.90
15013;DHT22;7603;49.432;11.418;2022-09-09T02:46:08;11.90;99.90
15013;DHT22;7603;49.432;11.418;2022-09-09T02:49:06;12.00;99.90
15013;DHT22;7603;49.432;11.418;2022-09-09T02:51:51;12.10;99.90
15013;DHT22;7603;49.432;11.418;2022-09-09T02:54:30;12.20;99.90
15013;DHT22;7603;49.432;11.418;2022-09-09T02:59:27;12.30;99.90
15013;DHT22;7603;49.432;11.418;2022-09-09T03:01:53;12.40;99.90
15013;DHT22;7603;49.432;11.418;2022-09-09T03:04:19;12.50;99.90
15013;DHT22;7603;49.432;11.418;2022-09-09T03:06:45;12.60;99.90
15013;DHT22;7603;49.432;11.418;2022-09-09T03:09:11;12.70;99.90
15013;DHT22;7603;49.432;11.418;2022-09-09T03:11:37;12.70;99.90
15013;DHT22;7603;49.432;11.418;2022-09-09T03:14:04;12.80;99.90
15013;DHT22;7603;49.432;11.418;2022-09-09T03:16:30;12.90;99.90
15013;DHT22;7603;49.432;11.418;2022-09-09T03:18:55;12.90;99.90
15013;DHT22;7603;49.432;11.418;2022-09-09T03:21:21;13.00;99.90
15013;DHT22;7603;49.432;11.418;2022-09-09T03:23:47;13.00;99.90
15013;DHT22;7603;49.432;11.418;2022-09-09T03:26:13;13.10;99.90
15013;DHT22;7603;49.432;11.418;2022-09-09T03:28:41;13.10;99.90
15013;DHT22;7603;49.432;11.418;2022-09-09T03:31:07;13.20;99.90
15013;DHT22;7603;49.432;11.418;2022-09-09T03:33:36;13.10;99.90
15013;DHT22;7603;49.432;11.418;2022-09-09T03:36:03;13.10;99.90
15013;DHT22;7603;49.432;11.418;2022-09-09T03:38:29;13.10;99.90
15013;DHT22;7603;49.432;11.418;2022-09-09T03:40:56;13.10;99.90
15013;DHT22;7603;49.432;11.418;2022-09-09T03:43:25;13.10;99.90
15013;DHT22;7603;49.432;11.418;2022-09-09T03:45:51;13.10;99.90
15013;DHT22;7603;49.432;11.418;2022-09-09T03:48:18;13.10;99.90
15013;DHT22;7603;49.432;11.418;2022-09-09T03:50:48;13.10;99.90
15013;DHT22;7603;49.432;11.418;2022-09-09T03:53:15;13.20;99.90
15013;DHT22;7603;49.432;11.418;2022-09-09T03:55:53;13.20;99.90
15013;DHT22;7603;49.432;11.418;2022-09-09T03:58:22;13.20;99.90
15013;DHT22;7603;49.432;11.418;2022-09-09T04:01:01;13.20;99.90
15013;DHT22;7603;49.432;11.418;2022-09-09T04:03:27;13.20;99.90
15013;DHT22;7603;49.432;11.418;2022-09-09T04:05:54;13.30;99.90
15013;DHT22;7603;49.432;11.418;2022-09-09T04:08:21;13.30;99.90
15013;DHT22;7603;49.432;11.418;2022-09-09T04:10:49;13.30;99.90
15013;DHT22;7603;49.432;11.418;2022-09-09T04:13:16;13.40;99.90
15013;DHT22;7603;49.432;11.418;2022-09-09T04:15:44;13.40;99.90
15013;DHT22;7603;49.432;11.418;2022-09-09T04:18:10;13.50;99.90
15013;DHT22;7603;49.432;11.418;2022-09-09T04:20:37;13.50;99.90
15013;DHT22;7603;49.432;11.418;2022-09-09T04:23:03;13.60;99.90
15013;DHT22;7603;49.432;11.418;2022-09-09T04:25:29;13.60;99.90
15013;DHT22;7603;49.432;11.418;2022-09-09T04:27:56;13.70;99.90
15013;DHT22;7603;49.432;11.418;2022-09-09T04:30:22;13.70;99.90
15013;DHT22;7603;49.432;11.418;2022-09-09T04:32:47;13.70;99.90
15013;DHT22;7603;49.432;11.418;2022-09-09T04:35:13;13.80;99.90
15013;DHT22;7603;49.432;11.418;2022-09-09T04:37:39;13.80;99.90
15013;DHT22;7603;49.432;11.418;2022-09-09T04:40:05;13.80;99.90
15013;DHT22;7603;49.432;11.418;2022-09-09T04:42:35;13.80;99.90
15013;DHT22;7603;49.432;11.418;2022-09-09T04:45:01;13.80;99.90
15013;DHT22;7603;49.432;11.418;2022-09-09T04:47:27;13.80;99.90
15013;DHT22;7603;49.432;11.418;2022-09-09T04:49:53;13.90;99.90
15013;DHT22;7603;49.432;11.418;2022-09-09T04:52:20;13.90;99.90
15013;DHT22;7603;49.432;11.418;2022-09-09T04:54:46;14.00;99.90
15013;DHT22;7603;49.432;11.418;2022-09-09T04:57:12;14.00;99.90
15013;DHT22;7603;49.432;11.418;2022-09-09T04:59:41;14.00;99.90
15013;DHT22;7603;49.432;11.418;2022-09-09T05:02:06;14.10;99.90
15013;DHT22;7603;49.432;11.418;2022-09-09T05:04:32;14.10;99.90
15013;DHT22;7603;49.432;11.418;2022-09-09T05:06:59;14.10;99.90
15013;DHT22;7603;49.432;11.418;2022-09-09T05:09:24;14.20;99.90
15013;DHT22;7603;49.432;11.418;2022-09-09T05:11:50;14.20;99.90
15013;DHT22;7603;49.432;11.418;2022-09-09T05:14:16;14.20;99.90
15013;DHT22;7603;49.432;11.418;2022-09-09T05:16:44;14.30;99.90
15013;DHT22;7603;49.432;11.418;2022-09-09T05:19:10;14.40;99.90
15013;DHT22;7603;49.432;11.418;2022-09-09T05:21:35;14.40;99.90
15013;DHT22;7603;49.432;11.418;2022-09-09T05:24:01;14.40;99.90
15013;DHT22;7603;49.432;11.418;2022-09-09T05:26:27;14.50;99.90
15013;DHT22;7603;49.432;11.418;2022-09-09T05:28:54;14.60;99.90
15013;DHT22;7603;49.432;11.418;2022-09-09T05:31:21;14.60;99.90
15013;DHT22;7603;49.432;11.418;2022-09-09T05:33:47;14.60;99.90
15013;DHT22;7603;49.432;11.418;2022-09-09T05:36:17;14.70;99.90
15013;DHT22;7603;49.432;11.418;2022-09-09T05:38:43;14.80;99.90
15013;DHT22;7603;49.432;11.418;2022-09-09T05:41:11;15.00;99.90
15013;DHT22;7603;49.432;11.418;2022-09-09T05:43:37;15.10;99.90
15013;DHT22;7603;49.432;11.418;2022-09-09T05:46:08;15.20;99.90
15013;DHT22;7603;49.432;11.418;2022-09-09T05:48:39;15.30;99.90
15013;DHT22;7603;49.432;11.418;2022-09-09T05:51:06;15.50;99.90
15013;DHT22;7603;49.432;11.418;2022-09-09T05:53:35;15.60;99.90
15013;DHT22;7603;49.432;11.418;2022-09-09T05:56:08;15.70;99.90
15013;DHT22;7603;49.432;11.418;2022-09-09T05:58:38;15.90;99.90
15013;DHT22;7603;49.432;11.418;2022-09-09T06:01:08;16.10;99.90
15013;DHT22;7603;49.432;11.418;2022-09-09T06:03:37;16.20;99.90
15013;DHT22;7603;49.432;11.418;2022-09-09T06:06:06;16.30;99.90
15013;DHT22;7603;49.432;11.418;2022-09-09T06:08:33;16.40;99.90
15013;DHT22;7603;49.432;11.418;2022-09-09T06:11:16;16.40;99.90
15013;DHT22;7603;49.432;11.418;2022-09-09T06:13:42;16.40;99.90
15013;DHT22;7603;49.432;11.418;2022-09-09T06:16:09;16.40;99.90
15013;DHT22;7603;49.432;11.418;2022-09-09T06:18:37;16.30;99.90
15013;DHT22;7603;49.432;11.418;2022-09-09T06:21:05;16.30;99.90
15013;DHT22;7603;49.432;11.418;2022-09-09T06:23:32;16.30;99.90
15013;DHT22;7603;49.432;11.418;2022-09-09T06:28:37;16.30;99.90
15013;DHT22;7603;49.432;11.418;2022-09-09T06:31:10;16.40;99.90
15013;DHT22;7603;49.432;11.418;2022-09-09T06:33:40;16.40;99.90
15013;DHT22;7603;49.432;11.418;2022-09-09T06:36:17;16.50;99.90
15013;DHT22;7603;49.432;11.418;2022-09-09T06:38:44;16.60;99.90
15013;DHT22;7603;49.432;11.418;2022-09-09T06:41:11;16.70;99.90
15013;DHT22;7603;49.432;11.418;2022-09-09T06:43:37;16.90;99.90
15013;DHT22;7603;49.432;11.418;2022-09-09T06:46:10;17.10;99.90
15013;DHT22;7603;49.432;11.418;2022-09-09T06:48:36;17.30;99.90
15013;DHT22;7603;49.432;11.418;2022-09-09T06:51:07;17.40;99.90
15013;DHT22;7603;49.432;11.418;2022-09-09T06:53:34;17.40;99.90
15013;DHT22;7603;49.432;11.418;2022-09-09T06:56:21;17.50;99.90
15013;DHT22;7603;49.432;11.418;2022-09-09T06:58:49;17.50;99.90
15013;DHT22;7603;49.432;11.418;2022-09-09T07:01:16;17.50;99.90
15013;DHT22;7603;49.432;11.418;2022-09-09T07:03:46;17.50;99.90
15013;DHT22;7603;49.432;11.418;2022-09-09T07:06:19;17.40;99.90
15013;DHT22;7603;49.432;11.418;2022-09-09T07:08:55;17.40;99.90
15013;DHT22;7603;49.432;11.418;2022-09-09T07:11:23;17.50;99.90
15013;DHT22;7603;49.432;11.418;2022-09-09T07:13:49;17.50;99.90
15013;DHT22;7603;49.432;11.418;2022-09-09T07:16:19;17.50;99.90
15013;DHT22;7603;49.432;11.418;2022-09-09T07:18:46;17.60;99.90
15013;DHT22;7603;49.432;11.418;2022-09-09T07:21:13;17.70;99.90
15013;DHT22;7603;49.432;11.418;2022-09-09T07:23:39;17.70;99.90
15013;DHT22;7603;49.432;11.418;2022-09-09T07:26:14;17.80;99.90
15013;DHT22;7603;49.432;11.418;2022-09-09T07:28:40;17.90;99.90
15013;DHT22;7603;49.432;11.418;2022-09-09T07:31:08;18.00;99.90
15013;DHT22;7603;49.432;11.418;2022-09-09T07:33:38;18.10;99.90
15013;DHT22;7603;49.432;11.418;2022-09-09T07:36:16;18.20;99.90
15013;DHT22;7603;49.432;11.418;2022-09-09T07:38:50;18.40;99.90
15013;DHT22;7603;49.432;11.418;2022-09-09T07:41:52;18.60;99.90
15013;DHT22;7603;49.432;11.418;2022-09-09T07:44:22;18.90;99.90
15013;DHT22;7603;49.432;11.418;2022-09-09T07:46:48;19.10;99.90
15013;DHT22;7603;49.432;11.418;2022-09-09T07:49:14;19.20;99.90
15013;DHT22;7603;49.432;11.418;2022-09-09T07:51:43;19.30;99.90
15013;DHT22;7603;49.432;11.418;2022-09-09T07:54:11;19.40;99.90
15013;DHT22;7603;49.432;11.418;2022-09-09T07:56:38;19.60;99.90
15013;DHT22;7603;49.432;11.418;2022-09-09T07:59:04;19.70;99.90
15013;DHT22;7603;49.432;11.418;2022-09-09T08:01:37;19.80;99.90
15013;DHT22;7603;49.432;11.418;2022-09-09T08:04:12;19.90;99.90
15013;DHT22;7603;49.432;11.418;2022-09-09T08:06:44;19.80;99.90
15013;DHT22;7603;49.432;11.418;2022-09-09T08:09:12;19.80;99.90
15013;DHT22;7603;49.432;11.418;2022-09-09T08:11:39;19.80;99.90
15013;DHT22;7603;49.432;11.418;2022-09-09T08:14:06;19.80;99.90
15013;DHT22;7603;49.432;11.418;2022-09-09T08:16:38;19.80;99.90
15013;DHT22;7603;49.432;11.418;2022-09-09T08:19:04;19.80;99.90
15013;DHT22;7603;49.432;11.418;2022-09-09T08:21:32;19.80;99.90
15013;DHT22;7603;49.432;11.418;2022-09-09T08:24:00;19.80;99.90
15013;DHT22;7603;49.432;11.418;2022-09-09T08:26:30;19.70;99.90
15013;DHT22;7603;49.432;11.418;2022-09-09T08:28:57;19.80;99.90
15013;DHT22;7603;49.432;11.418;2022-09-09T08:31:29;20.00;99.90
15013;DHT22;7603;49.432;11.418;2022-09-09T08:33:56;20.40;99.90
15013;DHT22;7603;49.432;11.418;2022-09-09T08:36:24;20.80;99.90
15013;DHT22;7603;49.432;11.418;2022-09-09T08:38:52;21.40;99.90
15013;DHT22;7603;49.432;11.418;2022-09-09T08:41:48;22.00;99.90
15013;DHT22;7603;49.432;11.418;2022-09-09T08:55:28;25.00;99.90
15013;DHT22;7603;49.432;11.418;2022-09-09T08:57:58;25.40;94.90
15013;DHT22;7603;49.432;11.418;2022-09-09T09:00:35;25.80;95.10
15013;DHT22;7603;49.432;11.418;2022-09-09T09:06:09;27.20;90.50
15013;DHT22;7603;49.432;11.418;2022-09-09T09:08:49;27.80;90.30
15013;DHT22;7603;49.432;11.418;2022-09-09T09:11:17;28.70;81.50
15013;DHT22;7603;49.432;11.418;2022-09-09T09:18:52;30.00;71.70
15013;DHT22;7603;49.432;11.418;2022-09-09T09:21:36;29.60;71.60
15013;DHT22;7603;49.432;11.418;2022-09-09T09:24:11;29.10;71.10
15013;DHT22;7603;49.432;11.418;2022-09-09T09:26:48;28.50;70.10
15013;DHT22;7603;49.432;11.418;2022-09-09T09:29:19;27.60;71.70
15013;DHT22;7603;49.432;11.418;2022-09-09T09:31:52;27.10;72.90
15013;DHT22;7603;49.432;11.418;2022-09-09T09:34:20;26.80;76.30
15013;DHT22;7603;49.432;11.418;2022-09-09T09:37:12;27.10;77.70
15013;DHT22;7603;49.432;11.418;2022-09-09T09:39:42;28.20;74.80
15013;DHT22;7603;49.432;11.418;2022-09-09T09:42:12;29.50;72.20
15013;DHT22;7603;49.432;11.418;2022-09-09T09:44:41;30.70;68.30
15013;DHT22;7603;49.432;11.418;2022-09-09T09:47:13;31.90;64.40
15013;DHT22;7603;49.432;11.418;2022-09-09T09:49:54;33.10;61.60
15013;DHT22;7603;49.432;11.418;2022-09-09T09:52:23;34.10;57.10
15013;DHT22;7603;49.432;11.418;2022-09-09T09:54:50;34.40;55.20
15013;DHT22;7603;49.432;11.418;2022-09-09T09:57:18;34.70;53.80
15013;DHT22;7603;49.432;11.418;2022-09-09T09:59:44;34.90;53.20
15013;DHT22;7603;49.432;11.418;2022-09-09T10:02:22;34.50;53.40
15013;DHT22;7603;49.432;11.418;2022-09-09T10:05:01;33.90;53.00
15013;DHT22;7603;49.432;11.418;2022-09-09T10:07:27;33.40;53.40
15013;DHT22;7603;49.432;11.418;2022-09-09T10:09:56;33.00;54.20
15013;DHT22;7603;49.432;11.418;2022-09-09T10:12:54;32.50;54.20
15013;DHT22;7603;49.432;11.418;2022-09-09T10:15:31;31.60;55.20
15013;DHT22;7603;49.432;11.418;2022-09-09T10:18:22;30.40;57.00
15013;DHT22;7603;49.432;11.418;2022-09-09T10:34:35;25.80;70.80
15013;DHT22;7603;49.432;11.418;2022-09-09T10:37:11;26.30;70.90
15013;DHT22;7603;49.432;11.418;2022-09-09T10:39:40;27.20;69.80
15013;DHT22;7603;49.432;11.418;2022-09-09T10:42:09;28.30;67.90
15013;DHT22;7603;49.432;11.418;2022-09-09T10:45:07;29.00;66.20
15013;DHT22;7603;49.432;11.418;2022-09-09T10:47:59;29.50;63.20
15013;DHT22;7603;49.432;11.418;2022-09-09T10:50:51;29.50;62.50
15013;DHT22;7603;49.432;11.418;2022-09-09T10:53:29;29.50;62.40
15013;DHT22;7603;49.432;11.418;2022-09-09T10:56:03;29.60;62.00
15013;DHT22;7603;49.432;11.418;2022-09-09T10:58:42;30.90;60.30
15013;DHT22;7603;49.432;11.418;2022-09-09T11:01:23;32.70;57.30
15013;DHT22;7603;49.432;11.418;2022-09-09T11:04:05;34.30;54.30
15013;DHT22;7603;49.432;11.418;2022-09-09T11:06:39;35.90;51.90
15013;DHT22;7603;49.432;11.418;2022-09-09T11:09:08;37.50;49.10
15013;DHT22;7603;49.432;11.418;2022-09-09T11:11:48;38.80;46.80
15013;DHT22;7603;49.432;11.418;2022-09-09T11:14:21;39.90;44.40
15013;DHT22;7603;49.432;11.418;2022-09-09T11:17:06;40.80;42.50
15013;DHT22;7603;49.432;11.418;2022-09-09T11:19:44;40.80;41.40
15013;DHT22;7603;49.432;11.418;2022-09-09T11:22:36;40.40;40.90
15013;DHT22;7603;49.432;11.418;2022-09-09T11:25:16;39.20;40.80
15013;DHT22;7603;49.432;11.418;2022-09-09T11:30:22;35.60;45.60
15013;DHT22;7603;49.432;11.418;2022-09-09T11:40:47;30.20;54.90
15013;DHT22;7603;49.432;11.418;2022-09-09T11:43:25;29.40;56.40
15013;DHT22;7603;49.432;11.418;2022-09-09T11:45:54;28.80;58.00
15013;DHT22;7603;49.432;11.418;2022-09-09T11:48:33;28.30;58.90
15013;DHT22;7603;49.432;11.418;2022-09-09T11:51:46;27.90;60.50
15013;DHT22;7603;49.432;11.418;2022-09-09T11:53:54;27.40;62.60
15013;DHT22;7603;49.432;11.418;2022-09-09T11:56:32;27.00;65.30
15013;DHT22;7603;49.432;11.418;2022-09-09T11:59:06;26.70;65.70
15013;DHT22;7603;49.432;11.418;2022-09-09T12:01:45;26.30;67.90
15013;DHT22;7603;49.432;11.418;2022-09-09T12:04:21;25.90;70.20
15013;DHT22;7603;49.432;11.418;2022-09-09T12:06:57;25.50;73.20
15013;DHT22;7603;49.432;11.418;2022-09-09T12:09:46;25.10;80.10
15013;DHT22;7603;49.432;11.418;2022-09-09T12:17:31;23.30;96.50
15013;DHT22;7603;49.432;11.418;2022-09-09T12:20:37;23.00;98.40
15013;DHT22;7603;49.432;11.418;2022-09-09T12:33:51;21.90;99.90
15013;DHT22;7603;49.432;11.418;2022-09-09T12:36:28;21.60;99.90
15013;DHT22;7603;49.432;11.418;2022-09-09T12:38:59;21.30;99.90
15013;DHT22;7603;49.432;11.418;2022-09-09T12:41:36;20.90;99.90
15013;DHT22;7603;49.432;11.418;2022-09-09T12:44:06;20.60;99.90
15013;DHT22;7603;49.432;11.418;2022-09-09T12:46:41;20.30;99.90
15013;DHT22;7603;49.432;11.418;2022-09-09T12:51:52;19.60;99.90
15013;DHT22;7603;49.432;11.418;2022-09-09T12:54:19;18.30;99.90
15013;DHT22;7603;49.432;11.418;2022-09-09T12:56:46;17.30;99.90
15013;DHT22;7603;49.432;11.418;2022-09-09T12:59:34;16.30;99.90
15013;DHT22;7603;49.432;11.418;2022-09-09T13:02:00;15.20;99.90
15013;DHT22;7603;49.432;11.418;2022-09-09T13:04:26;14.20;99.90
15013;DHT22;7603;49.432;11.418;2022-09-09T13:06:52;13.90;99.90
15013;DHT22;7603;49.432;11.418;2022-09-09T13:09:18;13.90;99.90
15013;DHT22;7603;49.432;11.418;2022-09-09T13:11:50;13.70;99.90
15013;DHT22;7603;49.432;11.418;2022-09-09T13:14:31;10.60;99.90
15013;DHT22;7603;49.432;11.418;2022-09-09T13:19:02;8.60;99.90
15013;DHT22;7603;49.432;11.418;2022-09-09T13:21:38;8.70;99.90
15013;DHT22;7603;49.432;11.418;2022-09-09T13:27:05;10.60;99.90
15013;DHT22;7603;49.432;11.418;2022-09-09T13:29:51;11.40;99.90
15013;DHT22;7603;49.432;11.418;2022-09-09T13:32:21;12.00;99.90
15013;DHT22;7603;49.432;11.418;2022-09-09T13:34:57;12.50;99.90
15013;DHT22;7603;49.432;11.418;2022-09-09T13:37:37;14.30;99.90
15013;DHT22;7603;49.432;11.418;2022-09-09T13:40:04;17.00;99.90
15013;DHT22;7603;49.432;11.418;2022-09-09T13:42:34;18.60;99.90
15013;DHT22;7603;49.432;11.418;2022-09-09T13:45:03;18.80;99.90
15013;DHT22;7603;49.432;11.418;2022-09-09T13:47:34;18.20;99.90
15013;DHT22;7603;49.432;11.418;2022-09-09T13:52:52;19.30;99.90
15013;DHT22;7603;49.432;11.418;2022-09-09T13:55:19;20.30;99.90
15013;DHT22;7603;49.432;11.418;2022-09-09T13:58:05;21.30;99.90
15013;DHT22;7603;49.432;11.418;2022-09-09T14:00:34;21.70;99.90
15013;DHT22;7603;49.432;11.418;2022-09-09T14:03:00;20.90;99.90
15013;DHT22;7603;49.432;11.418;2022-09-09T14:05:32;20.20;99.90
15013;DHT22;7603;49.432;11.418;2022-09-09T14:07:58;19.60;99.90
15013;DHT22;7603;49.432;11.418;2022-09-09T14:10:25;18.90;99.90
15013;DHT22;7603;49.432;11.418;2022-09-09T14:12:51;18.50;99.90
15013;DHT22;7603;49.432;11.418;2022-09-09T14:15:18;18.20;99.90
15013;DHT22;7603;49.432;11.418;2022-09-09T14:17:44;17.80;99.90
15013;DHT22;7603;49.432;11.418;2022-09-09T14:20:10;17.40;99.90
15013;DHT22;7603;49.432;11.418;2022-09-09T14:22:37;17.10;99.90
15013;DHT22;7603;49.432;11.418;2022-09-09T14:25:05;16.90;99.90
15013;DHT22;7603;49.432;11.418;2022-09-09T14:27:31;16.90;99.90
15013;DHT22;7603;49.432;11.418;2022-09-09T14:29:58;16.80;99.90
15013;DHT22;7603;49.432;11.418;2022-09-09T14:32:25;16.70;99.90
15013;DHT22;7603;49.432;11.418;2022-09-09T14:34:51;16.80;99.90
15013;DHT22;7603;49.432;11.418;2022-09-09T14:37:17;16.80;99.90
15013;DHT22;7603;49.432;11.418;2022-09-09T14:39:44;17.30;99.90
15013;DHT22;7603;49.432;11.418;2022-09-09T14:42:11;18.70;99.90
15013;DHT22;7603;49.432;11.418;2022-09-09T14:44:37;20.50;99.90
15013;DHT22;7603;49.432;11.418;2022-09-09T14:47:07;21.80;99.90
15013;DHT22;7603;49.432;11.418;2022-09-09T14:49:36;22.20;99.90
15013;DHT22;7603;49.432;11.418;2022-09-09T14:52:03;21.90;99.90
15013;DHT22;7603;49.432;11.418;2022-09-09T14:54:29;21.40;99.90
15013;DHT22;7603;49.432;11.418;2022-09-09T14:56:55;21.20;99.90
15013;DHT22;7603;49.432;11.418;2022-09-09T14:59:22;21.00;99.90
15013;DHT22;7603;49.432;11.418;2022-09-09T15:01:47;20.50;99.90
15013;DHT22;7603;49.432;11.418;2022-09-09T15:04:13;20.10;99.90
15013;DHT22;7603;49.432;11.418;2022-09-09T15:06:42;19.70;99.90
15013;DHT22;7603;49.432;11.418;2022-09-09T15:09:12;19.40;99.90
15013;DHT22;7603;49.432;11.418;2022-09-09T15:11:38;19.10;99.90
15013;DHT22;7603;49.432;11.418;2022-09-09T15:14:05;18.90;99.90
15013;DHT22;7603;49.432;11.418;2022-09-09T15:16:31;18.80;99.90
15013;DHT22;7603;49.432;11.418;2022-09-09T15:18:59;18.90;99.90
15013;DHT22;7603;49.432;11.418;2022-09-09T15:21:31;19.30;99.90
15013;DHT22;7603;49.432;11.418;2022-09-09T15:23:58;20.20;99.90
15013;DHT22;7603;49.432;11.418;2022-09-09T15:26:25;22.00;99.90
15013;DHT22;7603;49.432;11.418;2022-09-09T15:28:51;24.40;99.90
15013;DHT22;7603;49.432;11.418;2022-09-09T15:31:26;26.60;99.90
15013;DHT22;7603;49.432;11.418;2022-09-09T15:33:55;28.50;99.90
15013;DHT22;7603;49.432;11.418;2022-09-09T15:36:28;30.00;99.90
15013;DHT22;7603;49.432;11.418;2022-09-09T15:39:00;31.10;99.90
15013;DHT22;7603;49.432;11.418;2022-09-09T15:41:27;32.00;99.90
15013;DHT22;7603;49.432;11.418;2022-09-09T15:43:55;32.60;99.90
15013;DHT22;7603;49.432;11.418;2022-09-09T15:46:35;32.80;99.90
15013;DHT22;7603;49.432;11.418;2022-09-09T15:49:17;33.00;99.90
15013;DHT22;7603;49.432;11.418;2022-09-09T15:51:50;33.60;99.90
15013;DHT22;7603;49.432;11.418;2022-09-09T15:54:18;33.80;99.90
15013;DHT22;7603;49.432;11.418;2022-09-09T15:56:45;34.10;99.90
15013;DHT22;7603;49.432;11.418;2022-09-09T15:59:12;34.60;99.90
15013;DHT22;7603;49.432;11.418;2022-09-09T16:01:38;34.70;99.90
15013;DHT22;7603;49.432;11.418;2022-09-09T16:04:07;34.40;99.90
15013;DHT22;7603;49.432;11.418;2022-09-09T16:06:34;34.30;99.90
15013;DHT22;7603;49.432;11.418;2022-09-09T16:09:01;34.30;99.90
15013;DHT22;7603;49.432;11.418;2022-09-09T16:11:29;34.60;99.90
15013;DHT22;7603;49.432;11.418;2022-09-09T16:13:56;34.90;99.90
15013;DHT22;7603;49.432;11.418;2022-09-09T16:16:27;35.30;99.90
15013;DHT22;7603;49.432;11.418;2022-09-09T16:19:13;35.40;99.90
15013;DHT22;7603;49.432;11.418;2022-09-09T16:21:44;35.70;99.90
15013;DHT22;7603;49.432;11.418;2022-09-09T16:24:12;36.00;99.90
15013;DHT22;7603;49.432;11.418;2022-09-09T16:26:43;35.80;99.90
15013;DHT22;7603;49.432;11.418;2022-09-09T16:29:11;34.40;99.90
15013;DHT22;7603;49.432;11.418;2022-09-09T16:31:37;32.60;99.90
15013;DHT22;7603;49.432;11.418;2022-09-09T16:34:03;30.70;99.90
15013;DHT22;7603;49.432;11.418;2022-09-09T16:36:30;28.90;99.90
15013;DHT22;7603;49.432;11.418;2022-09-09T16:38:59;27.40;99.90
15013;DHT22;7603;49.432;11.418;2022-09-09T16:41:26;26.00;99.90
15013;DHT22;7603;49.432;11.418;2022-09-09T16:43:56;24.90;99.90
15013;DHT22;7603;49.432;11.418;2022-09-09T16:46:23;23.80;99.90
15013;DHT22;7603;49.432;11.418;2022-09-09T16:48:49;23.00;99.90
15013;DHT22;7603;49.432;11.418;2022-09-09T16:51:21;22.40;99.90
15013;DHT22;7603;49.432;11.418;2022-09-09T16:53:49;21.90;99.90
15013;DHT22;7603;49.432;11.418;2022-09-09T16:56:17;21.40;99.90
15013;DHT22;7603;49.432;11.418;2022-09-09T16:58:49;21.00;99.90
15013;DHT22;7603;49.432;11.418;2022-09-09T17:01:15;20.60;99.90
15013;DHT22;7603;49.432;11.418;2022-09-09T17:03:41;20.70;99.90
15013;DHT22;7603;49.432;11.418;2022-09-09T17:06:14;20.70;99.90
15013;DHT22;7603;49.432;11.418;2022-09-09T17:08:41;20.50;99.90
15013;DHT22;7603;49.432;11.418;2022-09-09T17:11:18;20.20;99.90
15013;DHT22;7603;49.432;11.418;2022-09-09T17:13:45;19.80;99.90
15013;DHT22;7603;49.432;11.418;2022-09-09T17:16:12;19.40;99.90
15013;DHT22;7603;49.432;11.418;2022-09-09T17:18:39;19.00;99.90
15013;DHT22;7603;49.432;11.418;2022-09-09T17:21:13;18.80;99.90
15013;DHT22;7603;49.432;11.418;2022-09-09T17:23:39;18.50;99.90
15013;DHT22;7603;49.432;11.418;2022-09-09T17:26:06;18.10;99.90
15013;DHT22;7603;49.432;11.418;2022-09-09T17:28:36;17.90;99.90
15013;DHT22;7603;49.432;11.418;2022-09-09T17:31:05;17.60;99.90
15013;DHT22;7603;49.432;11.418;2022-09-09T17:33:33;17.40;99.90
15013;DHT22;7603;49.432;11.418;2022-09-09T17:36:02;17.20;99.90
15013;DHT22;7603;49.432;11.418;2022-09-09T17:38:28;17.10;99.90
15013;DHT22;7603;49.432;11.418;2022-09-09T17:41:19;16.90;99.90